Time;durP1;ratioP1;P1;durP2;ratioP2;P2;SDS_P1;SDS_P2;PMS_P1;PMS_P2;Temp;Humidity;BMP_temperature;BMP_pressure;BME280_temperature;BME280_humidity;BME280_pressure;Samples;Min_cycle;Max_cycle;Signal;HPM_P1;HPM_P2
2021/12/04 00:02:00;;;;;;;6.38;4.22;;;5.40;99.90;;;;;;5033983;28;20037;-52
2021/12/04 00:04:35;;;;;;;10.60;4.20;;;5.40;99.90;;;;;;5032760;28;20057;-56
2021/12/04 00:07:01;;;;;;;6.93;4.13;;;5.40;99.90;;;;;;5033499;28;20025;-57
2021/12/04 00:09:28;;;;;;;7.57;4.05;;;5.20;99.90;;;;;;5032369;28;20041;-56
2021/12/04 00:11:56;;;;;;;6.85;4.18;;;5.20;99.90;;;;;;5033418;28;20033;-53
2021/12/04 00:14:23;;;;;;;9.48;4.18;;;5.10;99.90;;;;;;5031835;28;20033;-51
2021/12/04 00:16:49;;;;;;;6.60;4.13;;;5.20;99.90;;;;;;5032320;28;20121;-52
2021/12/04 00:19:14;;;;;;;7.45;3.92;;;5.20;99.90;;;;;;5033457;28;20049;-51
2021/12/04 00:21:40;;;;;;;8.20;3.97;;;5.00;99.90;;;;;;5033760;28;20380;-52
2021/12/04 00:24:06;;;;;;;8.98;3.88;;;4.90;99.90;;;;;;5032593;28;20034;-52
2021/12/04 00:26:31;;;;;;;7.03;3.92;;;5.00;99.90;;;;;;5032568;28;20075;-50
2021/12/04 00:28:57;;;;;;;7.63;3.33;;;4.90;99.90;;;;;;5032312;28;20384;-53
2021/12/04 00:31:22;;;;;;;7.18;4.05;;;5.10;99.90;;;;;;5033616;28;20033;-53
2021/12/04 00:33:49;;;;;;;8.68;3.83;;;5.10;99.90;;;;;;5032474;28;20075;-54
2021/12/04 00:49:18;;;;;;;8.55;3.80;;;5.40;99.90;;;;;;5033504;28;20041;-54
2021/12/04 00:51:53;;;;;;;6.35;3.95;;;5.40;99.90;;;;;;5031913;28;20113;-50
2021/12/04 00:54:19;;;;;;;7.53;4.10;;;5.00;99.90;;;;;;5031861;28;20029;-50
2021/12/04 00:56:46;;;;;;;7.82;3.55;;;5.00;99.90;;;;;;5033121;28;20081;-53
2021/12/04 00:59:12;;;;;;;9.65;4.35;;;4.90;99.90;;;;;;5033034;28;20426;-50
2021/12/04 01:01:40;;;;;;;10.02;4.20;;;5.00;99.90;;;;;;5032098;28;20026;-53
2021/12/04 01:04:13;;;;;;;6.85;3.83;;;4.80;99.90;;;;;;5032952;28;20026;-51
2021/12/04 01:06:39;;;;;;;6.82;4.25;;;4.60;99.90;;;;;;5031726;28;20036;-52
2021/12/04 01:09:08;;;;;;;8.23;4.47;;;4.70;99.90;;;;;;5032599;28;20022;-53
2021/12/04 01:11:34;;;;;;;11.43;4.80;;;4.50;99.90;;;;;;5032936;28;20048;-50
2021/12/04 01:14:00;;;;;;;11.73;4.72;;;4.50;99.90;;;;;;5032006;28;20052;-51
2021/12/04 01:16:25;;;;;;;13.32;4.90;;;4.50;99.90;;;;;;5032016;28;20040;-50
2021/12/04 01:18:51;;;;;;;12.40;4.30;;;4.40;99.90;;;;;;5032030;28;20022;-53
2021/12/04 01:21:17;;;;;;;9.98;4.68;;;4.50;99.90;;;;;;5031626;28;20026;-51
2021/12/04 01:23:42;;;;;;;8.82;4.78;;;4.50;99.90;;;;;;5033012;28;20042;-51
2021/12/04 01:26:08;;;;;;;12.32;4.65;;;4.50;99.90;;;;;;5034245;28;20033;-52
2021/12/04 01:28:34;;;;;;;9.85;4.60;;;4.60;99.90;;;;;;5036199;28;20036;-51
2021/12/04 01:31:00;;;;;;;14.52;4.78;;;4.50;99.90;;;;;;5035299;28;20108;-49
2021/12/04 01:33:26;;;;;;;7.68;4.38;;;4.40;99.90;;;;;;5035097;28;20026;-51
2021/12/04 01:35:51;;;;;;;12.70;4.82;;;4.50;99.90;;;;;;5036552;28;20028;-53
2021/12/04 01:38:17;;;;;;;11.68;5.43;;;4.60;99.90;;;;;;5035119;28;20115;-51
2021/12/04 01:40:43;;;;;;;10.95;5.32;;;4.90;99.90;;;;;;5036000;28;20029;-52
2021/12/04 01:43:10;;;;;;;8.93;4.97;;;5.00;99.90;;;;;;5036638;28;20041;-49
2021/12/04 01:45:36;;;;;;;8.70;4.90;;;4.70;99.90;;;;;;5035004;28;20033;-53
2021/12/04 01:48:02;;;;;;;10.80;5.13;;;4.50;99.90;;;;;;5036157;28;20052;-52
2021/12/04 01:50:30;;;;;;;13.10;5.00;;;4.60;99.90;;;;;;5036115;28;20022;-52
2021/12/04 01:52:57;;;;;;;9.65;4.82;;;4.60;99.90;;;;;;5034887;28;20021;-52
2021/12/04 01:55:37;;;;;;;8.95;3.92;;;4.50;99.90;;;;;;5036038;28;20026;-51
2021/12/04 01:58:03;;;;;;;8.45;4.78;;;4.50;99.90;;;;;;5034830;28;20064;-54
2021/12/04 02:00:31;;;;;;;9.50;4.75;;;4.60;99.90;;;;;;5034781;28;20484;-52
2021/12/04 02:02:56;;;;;;;9.95;5.32;;;4.70;99.90;;;;;;5035844;28;20053;-53
2021/12/04 02:05:22;;;;;;;13.65;4.85;;;4.60;99.90;;;;;;5034698;28;20067;-50
2021/12/04 02:07:48;;;;;;;6.90;4.00;;;4.60;99.90;;;;;;5035758;28;20036;-54
2021/12/04 02:10:14;;;;;;;10.80;4.72;;;4.70;99.90;;;;;;5035852;28;20068;-53
2021/12/04 02:12:40;;;;;;;8.43;4.43;;;4.90;99.90;;;;;;5035182;28;20045;-49
2021/12/04 02:15:10;;;;;;;9.23;4.30;;;4.90;99.90;;;;;;5034536;28;20076;-52
2021/12/04 02:17:36;;;;;;;8.40;4.53;;;4.80;99.90;;;;;;5035019;28;20028;-53
2021/12/04 02:20:03;;;;;;;7.82;4.40;;;5.00;99.90;;;;;;5035660;28;20029;-51
2021/12/04 02:22:28;;;;;;;11.00;4.90;;;5.00;99.90;;;;;;5034400;28;20021;-54
2021/12/04 02:24:54;;;;;;;9.27;4.95;;;5.20;99.90;;;;;;5035510;28;20510;-49
2021/12/04 02:27:20;;;;;;;6.47;3.50;;;5.00;99.90;;;;;;5034474;28;20059;-50
2021/12/04 02:29:47;;;;;;;7.80;4.30;;;5.00;99.90;;;;;;5035026;28;20025;-53
2021/12/04 02:32:14;;;;;;;10.15;3.72;;;4.80;99.90;;;;;;5034364;28;20029;-52
2021/12/04 02:34:40;;;;;;;11.65;4.07;;;4.80;99.90;;;;;;5035288;28;20032;-51
2021/12/04 02:37:08;;;;;;;8.23;4.18;;;4.80;99.90;;;;;;5033584;28;20116;-51
2021/12/04 02:39:36;;;;;;;10.00;4.60;;;4.60;99.90;;;;;;5034299;28;20054;-51
2021/12/04 02:42:05;;;;;;;7.30;4.53;;;4.50;99.90;;;;;;5034301;28;20108;-55
2021/12/04 02:44:37;;;;;;;12.63;4.60;;;4.50;99.90;;;;;;5034710;28;20116;-53
2021/12/04 02:47:03;;;;;;;;;;;4.50;99.90;;;;;;5035136;28;20048;-52
2021/12/04 02:49:28;;;;;;;6.75;4.50;;;4.60;99.90;;;;;;5034979;28;19905;-54
2021/12/04 02:51:54;;;;;;;9.95;4.95;;;4.50;99.90;;;;;;5034022;28;20075;-50
2021/12/04 02:54:19;;;;;;;6.93;4.32;;;4.30;99.90;;;;;;5033595;28;20056;-53
2021/12/04 02:56:45;;;;;;;10.32;4.63;;;4.20;99.90;;;;;;5034009;28;20036;-52
2021/12/04 02:59:12;;;;;;;6.20;4.00;;;4.30;99.90;;;;;;5034934;28;20029;-49
2021/12/04 03:01:41;;;;;;;11.55;4.82;;;4.10;99.90;;;;;;5033907;28;20388;-54
2021/12/04 03:04:08;;;;;;;10.25;4.80;;;4.00;99.90;;;;;;5033370;28;20099;-54
2021/12/04 03:06:39;;;;;;;8.40;4.60;;;3.90;99.90;;;;;;5034650;28;20017;-49
2021/12/04 03:09:05;;;;;;;11.93;5.65;;;3.90;99.90;;;;;;5033492;28;20021;-51
2021/12/04 03:11:30;;;;;;;13.05;4.53;;;3.90;99.90;;;;;;5033692;28;20144;-53
2021/12/04 03:13:56;;;;;;;8.60;4.15;;;4.10;99.90;;;;;;5033283;28;20025;-54
2021/12/04 03:16:22;;;;;;;8.18;4.63;;;4.20;99.90;;;;;;5033618;28;20120;-52
2021/12/04 03:18:48;;;;;;;8.30;4.18;;;4.20;99.90;;;;;;5034547;28;20122;-51
2021/12/04 03:21:13;;;;;;;7.35;3.95;;;4.00;99.90;;;;;;5034522;28;20541;-52
2021/12/04 03:23:51;;;;;;;5.28;3.58;;;4.00;99.90;;;;;;5034249;28;20029;-54
2021/12/04 03:26:17;;;;;;;5.45;3.25;;;4.00;99.90;;;;;;5033114;28;20029;-52
2021/12/04 03:28:42;;;;;;;7.28;4.03;;;3.80;99.90;;;;;;5033055;28;20030;-54
2021/12/04 03:31:16;;;;;;;6.22;4.03;;;3.60;99.90;;;;;;5034230;28;20057;-52
2021/12/04 03:41:54;;;;;;;7.35;3.92;;;3.60;99.90;;;;;;5034451;28;20080;-53
2021/12/04 03:44:19;;;;;;;7.80;3.83;;;3.50;99.90;;;;;;5033986;28;20492;-53
2021/12/04 03:46:48;;;;;;;7.60;3.78;;;3.30;99.90;;;;;;5033771;28;20116;-52
2021/12/04 03:49:14;;;;;;;5.53;3.65;;;3.20;99.90;;;;;;5032125;28;20025;-54
2021/12/04 03:51:40;;;;;;;6.07;3.88;;;3.30;99.90;;;;;;5034240;28;20048;-53
2021/12/04 03:54:06;;;;;;;7.75;3.85;;;3.20;99.90;;;;;;5032504;28;20112;-55
2021/12/04 03:56:32;;;;;;;6.15;3.70;;;3.30;99.90;;;;;;5032872;28;20034;-54
2021/12/04 03:58:58;;;;;;;5.40;3.90;;;3.50;99.90;;;;;;5033762;28;20026;-55
2021/12/04 04:01:24;;;;;;;6.00;3.25;;;3.50;99.90;;;;;;5033709;28;20025;-53
2021/12/04 04:03:50;;;;;;;5.15;3.08;;;3.40;99.90;;;;;;5032682;28;20026;-53
2021/12/04 04:06:16;;;;;;;4.13;2.80;;;3.20;99.90;;;;;;5032369;28;20136;-53
2021/12/04 04:08:41;;;;;;;6.28;3.20;;;3.50;99.90;;;;;;5033964;28;20025;-56
2021/12/04 04:11:08;;;;;;;4.07;2.90;;;3.30;99.90;;;;;;5033593;28;20025;-51
2021/12/04 04:13:33;;;;;;;6.70;3.58;;;3.10;99.90;;;;;;5033473;28;20028;-55
2021/12/04 04:16:00;;;;;;;6.07;3.33;;;2.90;99.90;;;;;;5033563;28;20022;-56
2021/12/04 04:18:30;;;;;;;6.90;4.60;;;2.80;99.90;;;;;;5033576;28;20014;-54
2021/12/04 04:20:56;;;;;;;5.47;3.53;;;2.90;99.90;;;;;;5032493;28;20075;-56
2021/12/04 04:23:21;;;;;;;7.82;4.10;;;2.80;99.90;;;;;;5032046;28;20030;-54
2021/12/04 04:25:47;;;;;;;6.15;3.88;;;2.90;99.90;;;;;;5033449;28;20038;-54
2021/12/04 04:28:12;;;;;;;6.90;3.55;;;2.90;99.90;;;;;;5032386;28;20033;-54
2021/12/04 04:30:38;;;;;;;5.15;3.50;;;2.90;99.90;;;;;;5033314;28;20033;-53
2021/12/04 04:33:05;;;;;;;6.07;3.40;;;2.90;99.90;;;;;;5032853;28;20021;-55
2021/12/04 04:35:32;;;;;;;5.50;3.67;;;2.70;99.90;;;;;;5033306;28;20056;-51
2021/12/04 04:38:20;;;;;;;6.45;3.28;;;2.70;99.90;;;;;;5033351;28;20045;-52
2021/12/04 05:00:18;;;;;;;3.30;2.40;;;2.40;99.90;;;;;;5035947;28;20116;-51
2021/12/04 05:13:27;;;;;;;3.35;2.30;;;2.50;99.90;;;;;;5037149;28;20052;-49
2021/12/04 05:15:58;;;;;;;3.30;2.30;;;2.30;99.90;;;;;;5037067;28;20021;-53
2021/12/04 05:21:04;;;;;;;3.17;2.53;;;2.30;99.90;;;;;;5036913;28;20033;-51
2021/12/04 05:23:38;;;;;;;2.40;2.05;;;2.30;99.90;;;;;;5035954;28;20124;-50
2021/12/04 05:26:07;;;;;;;3.67;2.08;;;2.30;99.90;;;;;;5036644;28;20108;-50
2021/12/04 05:28:32;;;;;;;2.67;1.83;;;2.70;99.90;;;;;;5035377;28;20108;-50
2021/12/04 05:30:58;;;;;;;2.80;1.77;;;2.70;99.90;;;;;;5035322;28;20112;-50
2021/12/04 05:33:24;;;;;;;4.28;1.88;;;2.80;99.90;;;;;;5035174;28;20070;-50
2021/12/04 05:35:50;;;;;;;5.78;1.90;;;2.70;99.90;;;;;;5036504;28;20029;-49
2021/12/04 05:38:17;;;;;;;3.55;2.10;;;2.90;99.90;;;;;;5036656;28;20067;-49
2021/12/04 05:40:43;;;;;;;2.75;1.65;;;3.00;99.90;;;;;;5035081;28;20025;-50
2021/12/04 05:43:09;;;;;;;3.78;2.40;;;2.90;99.90;;;;;;5036593;28;20034;-50
2021/12/04 05:45:40;;;;;;;2.70;2.15;;;2.90;99.90;;;;;;5036615;28;20032;-55
2021/12/04 05:48:11;;;;;;;4.18;2.80;;;2.90;99.90;;;;;;5036269;28;20033;-54
2021/12/04 05:53:19;;;;;;;3.60;2.35;;;2.70;99.90;;;;;;5036633;28;20025;-51
2021/12/04 05:55:53;;;;;;;5.20;3.08;;;2.70;99.90;;;;;;5036166;28;20032;-49
2021/12/04 05:58:23;;;;;;;3.88;2.55;;;2.80;99.90;;;;;;5036118;28;20017;-50
2021/12/04 06:00:48;;;;;;;6.18;3.22;;;3.00;99.90;;;;;;5036030;28;20018;-50
2021/12/04 06:03:14;;;;;;;5.63;3.05;;;2.90;99.90;;;;;;5035400;28;20022;-52
2021/12/04 06:05:40;;;;;;;4.38;2.72;;;2.90;99.90;;;;;;5035938;28;20025;-52
2021/12/04 06:08:06;;;;;;;4.80;2.83;;;2.80;99.90;;;;;;5036353;28;20029;-52
2021/12/04 06:10:31;;;;;;;7.10;3.95;;;2.90;99.90;;;;;;5034997;28;20108;-49
2021/12/04 06:12:57;;;;;;;7.45;3.65;;;2.90;99.90;;;;;;5035774;28;20017;-51
2021/12/04 06:15:23;;;;;;;5.97;3.40;;;3.00;99.90;;;;;;5035928;28;20040;-51
2021/12/04 06:17:51;;;;;;;6.13;3.38;;;3.10;99.90;;;;;;5035694;28;20065;-51
2021/12/04 06:23:01;;;;;;;6.45;3.88;;;2.90;99.90;;;;;;5035713;28;20099;-50
2021/12/04 06:25:27;;;;;;;8.45;4.82;;;3.00;99.90;;;;;;5034283;28;20049;-53
2021/12/04 06:27:53;;;;;;;7.15;3.75;;;2.70;99.90;;;;;;5034218;28;20076;-51
2021/12/04 06:30:20;;;;;;;5.97;3.67;;;2.60;99.90;;;;;;5034255;28;20033;-53
2021/12/04 06:32:48;;;;;;;5.43;2.95;;;2.80;99.90;;;;;;5035379;28;20025;-54
2021/12/04 06:35:14;;;;;;;7.35;4.45;;;2.70;99.90;;;;;;5035228;28;20121;-53
2021/12/04 06:37:40;;;;;;;7.32;4.07;;;2.90;99.90;;;;;;5034405;28;20021;-51
2021/12/04 06:40:11;;;;;;;7.15;4.38;;;2.90;99.90;;;;;;5034019;28;20025;-52
2021/12/04 06:42:37;;;;;;;8.70;4.00;;;3.10;99.90;;;;;;5033967;28;20031;-55
2021/12/04 06:45:04;;;;;;;5.18;3.47;;;3.40;99.90;;;;;;5034781;28;20028;-52
2021/12/04 06:47:31;;;;;;;7.28;3.92;;;3.40;99.90;;;;;;5035031;28;20407;-54
2021/12/04 06:50:03;;;;;;;5.22;3.38;;;3.30;99.90;;;;;;5035136;28;20052;-51
2021/12/04 06:52:30;;;;;;;7.40;4.10;;;3.20;99.90;;;;;;5035252;28;20385;-50
2021/12/04 06:55:00;;;;;;;5.88;3.60;;;3.20;99.90;;;;;;5033758;28;20021;-51
2021/12/04 06:57:29;;;;;;;7.00;4.20;;;3.10;99.90;;;;;;5033741;28;20067;-50
2021/12/04 06:59:56;;;;;;;8.57;4.10;;;3.00;99.90;;;;;;5034747;28;20037;-52
2021/12/04 07:02:22;;;;;;;7.25;4.28;;;2.90;99.90;;;;;;5034794;28;20022;-53
2021/12/04 07:04:48;;;;;;;8.90;4.07;;;2.90;99.90;;;;;;5033909;28;20022;-53
2021/12/04 07:07:14;;;;;;;9.13;4.22;;;3.10;99.90;;;;;;5033457;28;20029;-54
2021/12/04 07:09:41;;;;;;;9.63;4.47;;;3.00;99.90;;;;;;5034684;28;20028;-51
2021/12/04 07:12:07;;;;;;;10.38;4.90;;;3.00;99.90;;;;;;5033437;28;20071;-55
2021/12/04 07:14:33;;;;;;;11.02;5.90;;;3.10;99.90;;;;;;5035019;28;20475;-50
2021/12/04 07:17:02;;;;;;;10.45;4.45;;;3.10;99.90;;;;;;5034649;28;20100;-50
2021/12/04 07:19:28;;;;;;;11.00;6.38;;;3.00;99.90;;;;;;5034548;28;20025;-51
2021/12/04 07:21:54;;;;;;;9.77;4.50;;;3.10;99.90;;;;;;5034532;28;20178;-50
2021/12/04 07:24:20;;;;;;;13.35;5.72;;;3.20;99.90;;;;;;5033583;28;20033;-52
2021/12/04 07:26:46;;;;;;;12.57;6.07;;;3.20;99.90;;;;;;5034352;28;20025;-57
2021/12/04 07:29:12;;;;;;;13.52;6.10;;;3.20;99.90;;;;;;5033405;28;20026;-52
2021/12/04 07:31:37;;;;;;;14.05;6.60;;;3.20;99.90;;;;;;5034375;28;20109;-56
2021/12/04 07:34:04;;;;;;;18.42;7.38;;;3.10;99.90;;;;;;5033303;28;20025;-54
2021/12/04 07:36:30;;;;;;;17.65;7.30;;;2.90;99.90;;;;;;5034206;28;20037;-49
2021/12/04 07:38:56;;;;;;;17.40;7.65;;;2.90;99.90;;;;;;5033326;28;20021;-55
2021/12/04 07:41:22;;;;;;;22.35;7.07;;;2.80;99.90;;;;;;5032898;28;20053;-52
2021/12/04 07:43:48;;;;;;;16.00;7.30;;;2.80;99.90;;;;;;5033988;28;20060;-55
2021/12/04 07:46:14;;;;;;;20.77;8.05;;;2.90;99.90;;;;;;5033960;28;20029;-53
2021/12/04 07:48:40;;;;;;;16.35;7.00;;;3.00;99.90;;;;;;5034523;28;20040;-56
2021/12/04 07:51:06;;;;;;;15.57;7.22;;;3.20;99.90;;;;;;5032731;28;20025;-53
2021/12/04 07:53:33;;;;;;;20.88;7.65;;;3.40;99.90;;;;;;5032562;28;20476;-53
2021/12/04 07:56:00;;;;;;;21.42;7.63;;;3.70;99.90;;;;;;5032572;28;20029;-56
2021/12/04 07:58:26;;;;;;;25.00;7.57;;;3.70;99.90;;;;;;5033807;28;20017;-54
2021/12/04 08:00:52;;;;;;;19.25;7.50;;;3.70;99.90;;;;;;5033786;28;20025;-56
2021/12/04 08:03:17;;;;;;;17.83;7.07;;;3.60;99.90;;;;;;5032690;28;20033;-55
2021/12/04 08:05:44;;;;;;;17.35;7.95;;;3.60;99.90;;;;;;5033315;28;20025;-56
2021/12/04 08:08:10;;;;;;;20.10;7.93;;;3.80;99.90;;;;;;5032688;28;20090;-52
2021/12/04 08:10:36;;;;;;;27.60;8.38;;;3.80;99.90;;;;;;5033589;28;20036;-50
2021/12/04 08:13:03;;;;;;;23.85;8.88;;;3.60;99.90;;;;;;5032264;28;20440;-54
2021/12/04 08:15:31;;;;;;;20.40;8.00;;;3.40;99.90;;;;;;5033544;28;20017;-56
2021/12/04 08:17:57;;;;;;;16.98;7.68;;;3.60;99.90;;;;;;5032249;28;20033;-53
2021/12/04 08:20:25;;;;;;;16.73;7.25;;;3.60;99.90;;;;;;5033553;28;20025;-56
2021/12/04 08:22:51;;;;;;;18.38;6.88;;;3.70;99.90;;;;;;5032045;28;20033;-54
2021/12/04 08:25:18;;;;;;;16.17;7.05;;;3.90;99.90;;;;;;5032131;28;20052;-55
2021/12/04 08:27:45;;;;;;;16.70;6.63;;;3.90;99.90;;;;;;5033332;28;20025;-54
2021/12/04 08:30:14;;;;;;;18.40;7.18;;;4.00;99.90;;;;;;5032842;28;20032;-53
2021/12/04 08:32:40;;;;;;;17.42;7.07;;;3.90;99.90;;;;;;5032194;28;20021;-51
2021/12/04 08:35:07;;;;;;;17.65;7.45;;;3.50;99.90;;;;;;5032186;28;20112;-55
2021/12/04 08:37:33;;;;;;;19.02;7.55;;;3.50;99.90;;;;;;5033509;28;20128;-53
2021/12/04 08:39:59;;;;;;;21.52;7.45;;;3.40;99.90;;;;;;5032058;28;20021;-51
2021/12/04 08:42:26;;;;;;;16.95;7.35;;;3.50;99.90;;;;;;5033424;28;20388;-55
2021/12/04 08:44:52;;;;;;;23.50;9.23;;;3.70;99.90;;;;;;5032020;28;20025;-54
2021/12/04 08:47:18;;;;;;;22.70;8.25;;;3.60;99.90;;;;;;5032124;28;20087;-56
2021/12/04 08:49:44;;;;;;;22.08;7.65;;;3.60;99.90;;;;;;5033171;28;20032;-55
2021/12/04 08:52:10;;;;;;;22.27;8.68;;;3.70;99.90;;;;;;5032678;28;20021;-51
2021/12/04 08:54:37;;;;;;;26.23;8.48;;;3.80;99.90;;;;;;5033130;28;20069;-52
2021/12/04 08:57:04;;;;;;;17.73;8.27;;;3.90;99.90;;;;;;5031915;28;20434;-52
2021/12/04 08:59:30;;;;;;;23.30;8.82;;;3.90;99.90;;;;;;5033009;28;20022;-52
2021/12/04 09:01:55;;;;;;;21.23;7.70;;;4.00;99.90;;;;;;5031808;28;20084;-55
2021/12/04 09:04:24;;;;;;;14.07;6.15;;;4.10;99.90;;;;;;5033265;28;20035;-52
2021/12/04 09:06:52;;;;;;;17.02;7.88;;;4.20;99.90;;;;;;5032901;28;20029;-54
2021/12/04 09:09:18;;;;;;;17.02;7.30;;;4.20;99.90;;;;;;5032870;28;20022;-54
2021/12/04 09:11:54;;;;;;;16.70;7.18;;;4.10;99.90;;;;;;5032867;28;20026;-54
2021/12/04 09:14:24;;;;;;;18.40;7.68;;;4.10;99.90;;;;;;5032893;28;20079;-52
2021/12/04 09:16:52;;;;;;;14.82;7.10;;;4.10;99.90;;;;;;5032909;28;20033;-54
2021/12/04 09:19:19;;;;;;;14.70;6.90;;;3.90;99.90;;;;;;5031624;28;20025;-55
2021/12/04 09:21:45;;;;;;;16.02;7.40;;;3.80;99.90;;;;;;5031967;28;20124;-55
2021/12/04 09:24:14;;;;;;;13.00;5.90;;;3.90;99.90;;;;;;5033384;28;20088;-51
2021/12/04 10:34:55;;;;;;;21.38;7.15;;;3.50;99.90;;;;;;5035463;28;20113;-55
2021/12/04 10:37:24;;;;;;;19.42;7.95;;;3.60;99.90;;;;;;5034536;28;20025;-55
2021/12/04 10:40:00;;;;;;;21.10;7.03;;;3.70;99.90;;;;;;5034408;28;20026;-56
2021/12/04 10:42:33;;;;;;;22.92;8.25;;;3.70;99.90;;;;;;5033992;28;20035;-56
2021/12/04 10:44:59;;;;;;;23.02;8.45;;;3.80;99.90;;;;;;5035165;28;20029;-56
2021/12/04 10:47:27;;;;;;;21.65;8.45;;;3.70;99.90;;;;;;5035127;28;20029;-55
2021/12/04 10:52:55;;;;;;;25.35;8.77;;;3.60;99.90;;;;;;5035046;28;20031;-54
2021/12/04 10:55:45;;;;;;;21.70;9.13;;;3.70;99.90;;;;;;5034080;28;20022;-56
2021/12/04 11:03:35;;;;;;;17.67;7.38;;;4.10;99.90;;;;;;5035129;28;20022;-55
2021/12/04 11:25:59;;;;;;;14.75;6.88;;;3.90;99.90;;;;;;5034803;28;20033;-53
2021/12/04 11:28:57;;;;;;;17.42;7.10;;;3.90;99.90;;;;;;5033066;28;20033;-55
2021/12/04 11:39:40;;;;;;;11.43;5.78;;;4.00;99.90;;;;;;5034405;28;20057;-55
2021/12/04 11:44:51;;;;;;;11.20;5.18;;;3.90;99.90;;;;;;5034097;28;20018;-56
2021/12/04 11:47:17;;;;;;;12.25;5.95;;;3.90;99.90;;;;;;5033597;28;20026;-51
2021/12/04 11:49:43;;;;;;;11.25;5.00;;;3.90;99.90;;;;;;5032724;28;20033;-54
2021/12/04 11:52:15;;;;;;;9.70;5.25;;;4.00;99.90;;;;;;5032675;28;20017;-53
2021/12/04 11:54:49;;;;;;;9.18;4.32;;;4.10;99.90;;;;;;5033947;28;20089;-53
2021/12/04 11:57:17;;;;;;;9.07;5.10;;;4.20;99.90;;;;;;5034127;28;20506;-53
2021/12/04 11:59:47;;;;;;;9.90;4.78;;;4.20;99.90;;;;;;5032922;28;20030;-52
2021/12/04 12:02:20;;;;;;;10.35;4.68;;;4.30;99.90;;;;;;5033008;28;20033;-49
2021/12/04 12:04:50;;;;;;;10.27;4.95;;;4.10;99.90;;;;;;5034104;28;20017;-54
2021/12/04 12:07:17;;;;;;;12.48;4.88;;;4.10;99.90;;;;;;5034172;28;20017;-52
2021/12/04 12:09:44;;;;;;;10.45;5.63;;;4.10;99.90;;;;;;5031888;28;20030;-52
2021/12/04 12:12:14;;;;;;;14.40;5.57;;;4.10;99.90;;;;;;5032428;28;20029;-51
2021/12/04 12:14:48;;;;;;;9.45;4.95;;;4.10;99.90;;;;;;5033423;28;20018;-51
2021/12/04 12:17:15;;;;;;;8.82;4.63;;;4.00;99.90;;;;;;5032429;28;20030;-51
2021/12/04 12:19:49;;;;;;;11.35;4.93;;;4.10;99.90;;;;;;5032562;28;20021;-55
2021/12/04 12:22:35;;;;;;;10.43;4.38;;;4.00;99.90;;;;;;5032151;28;20028;-50
2021/12/04 12:25:15;;;;;;;8.27;4.65;;;4.00;99.90;;;;;;5032717;28;20396;-50
2021/12/04 12:33:16;;;;;;;10.02;4.75;;;4.10;99.90;;;;;;5033388;28;20040;-51
2021/12/04 12:36:12;;;;;;;8.55;4.28;;;4.10;99.90;;;;;;5033351;28;20594;-53
2021/12/04 12:39:08;;;;;;;8.75;4.05;;;4.10;99.90;;;;;;5032077;28;20148;-55
2021/12/04 12:41:48;;;;;;;9.50;4.80;;;4.10;99.90;;;;;;5032037;28;20036;-52
2021/12/04 12:44:29;;;;;;;11.63;4.40;;;4.00;99.90;;;;;;5033539;28;20022;-50
2021/12/04 12:47:04;;;;;;;9.73;4.67;;;4.00;99.90;;;;;;5032248;28;20492;-50
2021/12/04 12:49:43;;;;;;;11.02;5.00;;;4.00;99.90;;;;;;5032015;28;20026;-54
2021/12/04 12:52:21;;;;;;;12.45;5.60;;;4.00;99.90;;;;;;5033222;28;20022;-53
2021/12/04 12:54:54;;;;;;;13.93;5.50;;;3.90;99.90;;;;;;5032801;28;20025;-50
2021/12/04 12:57:43;;;;;;;15.55;6.40;;;3.90;99.90;;;;;;5033414;28;20033;-51
2021/12/04 13:11:44;;;;;;;18.02;7.40;;;4.30;99.90;;;;;;5033556;28;20124;-49
2021/12/04 13:14:11;;;;;;;9.82;5.25;;;4.30;99.90;;;;;;5032540;28;20025;-54
2021/12/04 13:16:37;;;;;;;12.30;5.22;;;4.50;99.90;;;;;;5032514;28;20017;-53
2021/12/04 13:19:08;;;;;;;10.93;5.60;;;4.60;99.90;;;;;;5032939;28;20018;-53
2021/12/04 13:21:36;;;;;;;12.15;7.43;;;4.60;99.90;;;;;;5035418;28;20502;-52
2021/12/04 13:24:03;;;;;;;29.98;8.13;;;4.60;99.90;;;;;;5035787;28;20037;-52
2021/12/04 13:26:35;;;;;;;14.60;6.80;;;4.50;99.90;;;;;;5036568;28;20025;-54
2021/12/04 13:29:05;;;;;;;19.42;6.63;;;4.60;99.90;;;;;;5035957;28;20028;-50
2021/12/04 13:31:34;;;;;;;17.70;8.27;;;4.50;99.90;;;;;;5035912;28;20102;-49
2021/12/04 13:33:59;;;;;;;15.60;7.28;;;4.50;99.90;;;;;;5035221;28;20037;-50
2021/12/04 13:36:30;;;;;;;19.92;6.65;;;4.70;99.90;;;;;;5036553;28;20021;-49
2021/12/04 13:39:05;;;;;;;15.00;5.68;;;4.70;99.90;;;;;;5036181;28;20021;-51
2021/12/04 13:41:31;;;;;;;13.07;5.38;;;4.70;99.90;;;;;;5035331;28;20120;-51
2021/12/04 13:44:00;;;;;;;11.05;5.78;;;4.60;99.90;;;;;;5036031;28;20053;-51
2021/12/04 13:46:26;;;;;;;12.70;5.93;;;4.60;99.90;;;;;;5035016;28;20032;-54
2021/12/04 13:48:59;;;;;;;10.88;5.25;;;4.60;99.90;;;;;;5036291;28;20151;-51
2021/12/04 13:51:25;;;;;;;13.90;5.47;;;4.80;99.90;;;;;;5036263;28;20043;-54
2021/12/04 13:53:51;;;;;;;13.75;6.43;;;4.90;99.90;;;;;;5035594;28;20018;-49
2021/12/04 13:56:19;;;;;;;12.10;6.60;;;4.90;99.90;;;;;;5035104;28;20052;-48
2021/12/04 13:58:54;;;;;;;11.77;5.88;;;4.80;99.90;;;;;;5035242;28;20025;-50
2021/12/04 14:01:21;;;;;;;15.85;6.45;;;4.80;99.90;;;;;;5034879;28;20021;-53
2021/12/04 14:03:47;;;;;;;16.20;7.22;;;4.70;99.90;;;;;;5035974;28;20032;-52
2021/12/04 14:06:18;;;;;;;14.77;7.13;;;4.60;99.90;;;;;;5034798;28;20021;-50
2021/12/04 14:09:00;;;;;;;13.83;6.07;;;4.70;99.90;;;;;;5035029;28;20079;-52
2021/12/04 14:11:39;;;;;;;15.32;6.03;;;4.70;99.90;;;;;;5036004;28;20116;-51
2021/12/04 14:14:21;;;;;;;14.27;6.88;;;4.50;99.90;;;;;;5035955;28;20029;-50
2021/12/04 14:16:53;;;;;;;20.83;8.55;;;4.60;99.90;;;;;;5034586;28;20116;-48
2021/12/04 14:19:27;;;;;;;23.27;9.10;;;4.50;99.90;;;;;;5035021;28;20026;-48
2021/12/04 14:22:08;;;;;;;14.48;6.90;;;4.60;99.90;;;;;;5036017;28;20026;-51
2021/12/04 14:24:50;;;;;;;14.37;6.00;;;4.60;99.90;;;;;;5034302;28;20040;-49
2021/12/04 14:27:23;;;;;;;19.10;7.07;;;4.70;99.90;;;;;;5034291;28;20056;-49
2021/12/04 14:29:58;;;;;;;15.52;5.55;;;4.80;99.90;;;;;;5034345;28;20029;-49
2021/12/04 14:32:30;;;;;;;12.93;5.55;;;5.10;99.90;;;;;;5033477;28;20049;-48
2021/12/04 14:35:02;;;;;;;10.02;5.32;;;5.10;99.90;;;;;;5035088;28;20033;-49
2021/12/04 14:37:33;;;;;;;12.70;5.95;;;5.00;99.90;;;;;;5034481;28;20120;-50
2021/12/04 14:39:59;;;;;;;17.33;5.40;;;4.80;99.90;;;;;;5034160;28;20080;-47
2021/12/04 14:42:30;;;;;;;14.25;7.10;;;4.70;99.90;;;;;;5035195;28;20025;-46
2021/12/04 14:45:04;;;;;;;;;;;4.60;99.90;;;;;;5035939;28;20028;-50
2021/12/04 14:47:44;;;;;;;14.60;7.00;;;4.50;99.90;;;;;;5035130;28;20291;-47
2021/12/04 14:50:12;;;;;;;16.50;6.97;;;4.50;99.90;;;;;;5035264;28;20021;-47
2021/12/04 14:52:38;;;;;;;20.52;7.82;;;4.40;99.90;;;;;;5035044;28;20022;-47
2021/12/04 14:55:22;;;;;;;12.05;6.10;;;4.30;99.90;;;;;;5035036;28;20025;-49
2021/12/04 14:57:49;;;;;;;10.82;5.50;;;4.20;99.90;;;;;;5034648;28;20029;-49
2021/12/04 15:00:19;;;;;;;11.40;5.90;;;4.20;99.90;;;;;;5033738;28;20029;-47
2021/12/04 15:02:58;;;;;;;11.27;5.32;;;4.40;99.90;;;;;;5033654;28;20029;-49
2021/12/04 15:05:37;;;;;;;9.15;4.70;;;4.50;99.90;;;;;;5035606;28;20025;-47
2021/12/04 15:08:11;;;;;;;8.05;4.22;;;4.60;99.90;;;;;;5034543;28;20022;-48
2021/12/04 15:10:38;;;;;;;9.15;4.55;;;4.60;99.90;;;;;;5034119;28;20044;-48
2021/12/04 15:13:17;;;;;;;7.68;4.20;;;4.50;99.90;;;;;;5035017;28;20110;-50
2021/12/04 15:15:43;;;;;;;8.43;3.70;;;4.70;99.90;;;;;;5034817;28;20025;-48
2021/12/04 15:18:12;;;;;;;9.02;3.30;;;4.60;99.90;;;;;;5035144;28;20033;-48
2021/12/04 15:20:42;;;;;;;6.88;3.78;;;4.80;99.90;;;;;;5033334;28;20034;-46
2021/12/04 15:23:13;;;;;;;9.00;4.63;;;4.90;99.90;;;;;;5034573;28;20039;-48
2021/12/04 15:25:40;;;;;;;8.90;4.25;;;4.90;99.90;;;;;;5033880;28;20029;-48
2021/12/04 15:28:17;;;;;;;10.18;4.72;;;4.90;99.90;;;;;;5034401;28;20436;-47
2021/12/04 15:30:48;;;;;;;11.63;5.05;;;5.10;99.90;;;;;;5033469;28;20018;-46
2021/12/04 15:33:26;;;;;;;10.35;4.72;;;5.00;99.90;;;;;;5033652;28;20025;-48
2021/12/04 15:35:54;;;;;;;10.57;5.32;;;5.00;99.90;;;;;;5034393;28;20022;-49
2021/12/04 15:38:38;;;;;;;10.55;5.93;;;4.90;99.90;;;;;;5033825;28;20107;-46
2021/12/04 15:41:24;;;;;;;11.13;5.90;;;4.80;99.90;;;;;;5034303;28;20079;-49
2021/12/04 15:47:09;;;;;;;13.43;6.45;;;4.60;99.90;;;;;;5018283;28;20025;-49
2021/12/04 15:55:19;;;;;;;10.95;5.22;;;4.50;99.90;;;;;;5034570;28;20036;-51
2021/12/04 15:58:00;;;;;;;10.93;5.35;;;4.60;99.90;;;;;;5032622;28;20072;-49
2021/12/04 16:00:30;;;;;;;9.93;4.80;;;4.60;99.90;;;;;;5033838;28;20025;-47
2021/12/04 16:02:59;;;;;;;11.95;5.05;;;4.90;99.90;;;;;;5033983;28;20025;-48
2021/12/04 16:05:32;;;;;;;9.68;5.85;;;5.00;99.90;;;;;;5032530;28;20025;-50
2021/12/04 16:08:07;;;;;;;9.88;5.47;;;5.00;99.90;;;;;;5033642;28;20108;-49
2021/12/04 16:10:35;;;;;;;13.43;6.15;;;5.00;99.90;;;;;;5034206;28;20476;-46
2021/12/04 16:13:02;;;;;;;7.10;4.03;;;5.10;99.90;;;;;;5034052;28;20033;-46
2021/12/04 16:15:28;;;;;;;8.45;4.50;;;5.00;99.90;;;;;;5033626;28;20483;-46